Hauptseite
METAR-TAF:

METAR-TAF

Flughäfen :

Flughafen Aberdeen International

Aberdeen, Schottland

Breite: 57-12N, Länge: 002-13W, Höhe: 65 m

Beobachtung

Neuester Wetterbericht von vor 19 Minuten, um 05:50 UTC
Wind 2 kt aus unterschiedlichen Richtungen
Temperatur -4°C
Luftfeuchtigkeit 86%
Luftdruck 998 hPa
Sichtweite 10 km oder mehr

METAR: EGPD 230550Z AUTO VRB02KT 9999 NCD M04/M06 Q0998 NOSIG

Zeit: 06:09 (06:09 UTC)

Prognose

Neuester Wetterbericht von vor 1 Stunde und 12 Minuten, um 04:57 UTC
Gültige Prognose vom 23 um 06 UTC bis 24 um 06 UTC
Wind 5 kt aus West/Südwest
Sichtweite 10 km oder mehr
keine Wolken unter 1500 m und keine Kumulonimbus oder Gewitterwolken

TAF: EGPD 230457Z 2306/2406 24005KT CAVOK

Wetterbeobachtungen und Prognosen von mehr als 4000 Flughäfen (METAR und TAF Bericht).

Die verfügbaren Stationen werden durch gelbe und rote Markierungen auf der Karte dargestellt.

Führen Sie die Maus auf sie, um den Namen der Station zu sehen.

Darauf klicken, um die Beobachtung von Wetterbeobachtungen und Prognosen zu sehen.

Um die Karte zu ändern : klicken Sie auf den grünen Tasten mit einem schwarzen Kreuz Zum Vergrößern, auf den grünen Button mit einem Gedankenstrich zu verkleinern, oder auf die grünen Pfeile für benachbarte Karten.


METAR-TAF: